sensor_id;sensor_type;location;lat;lon;timestamp;temperature;humidity
774;DHT22;370;48.810;9.150;2023-10-31T00:00:23;11.90;72.10
774;DHT22;370;48.810;9.150;2023-10-31T00:02:50;11.80;72.10
774;DHT22;370;48.810;9.150;2023-10-31T00:05:17;11.90;72.20
774;DHT22;370;48.810;9.150;2023-10-31T00:07:44;11.90;72.10
774;DHT22;370;48.810;9.150;2023-10-31T00:10:11;11.90;70.90
774;DHT22;370;48.810;9.150;2023-10-31T00:12:39;11.90;70.00
774;DHT22;370;48.810;9.150;2023-10-31T00:15:07;11.90;70.70
774;DHT22;370;48.810;9.150;2023-10-31T00:17:34;12.00;72.20
774;DHT22;370;48.810;9.150;2023-10-31T00:20:01;12.00;72.20
774;DHT22;370;48.810;9.150;2023-10-31T00:22:28;12.00;72.20
774;DHT22;370;48.810;9.150;2023-10-31T00:24:55;12.00;70.90
774;DHT22;370;48.810;9.150;2023-10-31T00:27:22;12.00;70.00
774;DHT22;370;48.810;9.150;2023-10-31T00:29:49;12.00;68.90
774;DHT22;370;48.810;9.150;2023-10-31T00:32:17;11.90;68.90
774;DHT22;370;48.810;9.150;2023-10-31T00:34:44;11.90;67.90
774;DHT22;370;48.810;9.150;2023-10-31T00:37:11;11.90;68.50
774;DHT22;370;48.810;9.150;2023-10-31T00:39:39;11.90;68.00
774;DHT22;370;48.810;9.150;2023-10-31T00:42:06;11.90;67.90
774;DHT22;370;48.810;9.150;2023-10-31T00:44:33;11.80;68.30
774;DHT22;370;48.810;9.150;2023-10-31T00:47:00;11.90;69.40
774;DHT22;370;48.810;9.150;2023-10-31T00:49:29;11.80;67.90
774;DHT22;370;48.810;9.150;2023-10-31T00:51:55;11.80;68.50
774;DHT22;370;48.810;9.150;2023-10-31T00:54:22;11.80;69.40
774;DHT22;370;48.810;9.150;2023-10-31T00:56:51;11.80;69.70
774;DHT22;370;48.810;9.150;2023-10-31T00:59:18;11.70;69.60
774;DHT22;370;48.810;9.150;2023-10-31T01:01:45;11.80;70.10
774;DHT22;370;48.810;9.150;2023-10-31T01:04:12;11.70;69.40
774;DHT22;370;48.810;9.150;2023-10-31T01:06:43;11.70;69.60
774;DHT22;370;48.810;9.150;2023-10-31T01:09:11;11.80;69.70
774;DHT22;370;48.810;9.150;2023-10-31T01:11:40;11.70;69.70
774;DHT22;370;48.810;9.150;2023-10-31T02:03:48;10.40;62.90
774;DHT22;370;48.810;9.150;2023-10-31T02:11:30;10.50;61.60
774;DHT22;370;48.810;9.150;2023-10-31T02:17:33;10.30;56.50
774;DHT22;370;48.810;9.150;2023-10-31T02:23:58;10.30;56.40
774;DHT22;370;48.810;9.150;2023-10-31T02:58:50;10.40;55.80
774;DHT22;370;48.810;9.150;2023-10-31T03:01:20;10.30;54.40
774;DHT22;370;48.810;9.150;2023-10-31T03:17:44;10.20;52.50
774;DHT22;370;48.810;9.150;2023-10-31T03:30:43;10.20;54.30
774;DHT22;370;48.810;9.150;2023-10-31T03:53:31;10.30;55.70
774;DHT22;370;48.810;9.150;2023-10-31T03:55:59;10.40;54.40
774;DHT22;370;48.810;9.150;2023-10-31T04:01:41;10.40;50.00
774;DHT22;370;48.810;9.150;2023-10-31T04:04:22;10.40;49.00
774;DHT22;370;48.810;9.150;2023-10-31T04:06:57;10.30;49.50
774;DHT22;370;48.810;9.150;2023-10-31T04:09:41;10.40;49.50
774;DHT22;370;48.810;9.150;2023-10-31T04:13:12;10.30;50.90
774;DHT22;370;48.810;9.150;2023-10-31T04:19:21;10.40;50.60
774;DHT22;370;48.810;9.150;2023-10-31T04:21:52;10.40;50.00
774;DHT22;370;48.810;9.150;2023-10-31T04:24:19;10.40;47.60
774;DHT22;370;48.810;9.150;2023-10-31T04:26:47;10.40;46.90
774;DHT22;370;48.810;9.150;2023-10-31T04:29:15;10.40;45.00
774;DHT22;370;48.810;9.150;2023-10-31T04:31:42;10.30;45.90
774;DHT22;370;48.810;9.150;2023-10-31T04:34:08;10.30;43.60
774;DHT22;370;48.810;9.150;2023-10-31T04:36:36;10.30;40.30
774;DHT22;370;48.810;9.150;2023-10-31T04:39:03;10.30;37.80
774;DHT22;370;48.810;9.150;2023-10-31T04:41:29;10.30;37.00
774;DHT22;370;48.810;9.150;2023-10-31T04:43:58;10.20;36.60
774;DHT22;370;48.810;9.150;2023-10-31T04:46:25;10.30;32.20
774;DHT22;370;48.810;9.150;2023-10-31T04:48:56;10.30;30.70
774;DHT22;370;48.810;9.150;2023-10-31T04:51:26;10.30;29.90
774;DHT22;370;48.810;9.150;2023-10-31T04:53:53;10.30;27.30
774;DHT22;370;48.810;9.150;2023-10-31T04:56:20;10.30;29.20
774;DHT22;370;48.810;9.150;2023-10-31T04:58:46;10.40;27.40
774;DHT22;370;48.810;9.150;2023-10-31T05:01:16;10.40;26.10
774;DHT22;370;48.810;9.150;2023-10-31T05:03:43;10.40;25.80
774;DHT22;370;48.810;9.150;2023-10-31T05:06:09;10.40;24.50
774;DHT22;370;48.810;9.150;2023-10-31T05:08:36;10.40;24.90
774;DHT22;370;48.810;9.150;2023-10-31T05:11:03;10.40;25.80
774;DHT22;370;48.810;9.150;2023-10-31T05:13:30;10.30;27.60
774;DHT22;370;48.810;9.150;2023-10-31T05:16:01;10.20;30.60
774;DHT22;370;48.810;9.150;2023-10-31T05:18:30;10.30;30.70
774;DHT22;370;48.810;9.150;2023-10-31T05:20:56;10.20;33.90
774;DHT22;370;48.810;9.150;2023-10-31T05:23:23;10.30;34.50
774;DHT22;370;48.810;9.150;2023-10-31T05:25:50;10.20;37.00
774;DHT22;370;48.810;9.150;2023-10-31T05:28:17;10.10;38.00
774;DHT22;370;48.810;9.150;2023-10-31T05:30:44;10.00;38.50
774;DHT22;370;48.810;9.150;2023-10-31T05:33:15;10.00;39.80
774;DHT22;370;48.810;9.150;2023-10-31T05:35:43;10.10;39.10
774;DHT22;370;48.810;9.150;2023-10-31T05:38:10;9.90;39.10
774;DHT22;370;48.810;9.150;2023-10-31T05:40:37;9.90;37.60
774;DHT22;370;48.810;9.150;2023-10-31T05:43:04;9.90;35.50
774;DHT22;370;48.810;9.150;2023-10-31T05:45:31;9.90;38.40
774;DHT22;370;48.810;9.150;2023-10-31T05:47:59;9.90;39.10
774;DHT22;370;48.810;9.150;2023-10-31T05:50:26;9.70;41.40
774;DHT22;370;48.810;9.150;2023-10-31T05:52:57;9.80;40.90
774;DHT22;370;48.810;9.150;2023-10-31T05:55:24;9.80;38.70
774;DHT22;370;48.810;9.150;2023-10-31T05:57:51;9.80;37.30
774;DHT22;370;48.810;9.150;2023-10-31T06:00:19;9.70;36.30
774;DHT22;370;48.810;9.150;2023-10-31T06:02:45;9.70;36.70
774;DHT22;370;48.810;9.150;2023-10-31T06:05:12;9.70;36.50
774;DHT22;370;48.810;9.150;2023-10-31T06:07:39;9.60;38.40
774;DHT22;370;48.810;9.150;2023-10-31T06:10:08;9.60;38.60
774;DHT22;370;48.810;9.150;2023-10-31T06:12:35;9.60;39.70
774;DHT22;370;48.810;9.150;2023-10-31T06:15:03;9.60;38.10
774;DHT22;370;48.810;9.150;2023-10-31T06:17:30;9.60;38.70
774;DHT22;370;48.810;9.150;2023-10-31T06:19:59;9.70;37.60
774;DHT22;370;48.810;9.150;2023-10-31T06:22:25;9.70;30.30
774;DHT22;370;48.810;9.150;2023-10-31T06:24:52;10.00;39.40
774;DHT22;370;48.810;9.150;2023-10-31T06:27:21;10.00;26.70
774;DHT22;370;48.810;9.150;2023-10-31T06:29:48;10.20;22.50
774;DHT22;370;48.810;9.150;2023-10-31T06:32:15;10.30;22.40
774;DHT22;370;48.810;9.150;2023-10-31T06:34:42;10.30;22.50
774;DHT22;370;48.810;9.150;2023-10-31T06:37:08;10.40;20.90
774;DHT22;370;48.810;9.150;2023-10-31T06:39:35;10.50;18.30
774;DHT22;370;48.810;9.150;2023-10-31T06:42:03;10.50;18.50
774;DHT22;370;48.810;9.150;2023-10-31T06:44:32;10.60;16.10
774;DHT22;370;48.810;9.150;2023-10-31T06:46:59;10.70;16.10
774;DHT22;370;48.810;9.150;2023-10-31T06:49:25;10.70;17.60
774;DHT22;370;48.810;9.150;2023-10-31T06:51:52;10.70;16.80
774;DHT22;370;48.810;9.150;2023-10-31T06:54:21;10.80;18.60
774;DHT22;370;48.810;9.150;2023-10-31T06:56:49;10.70;20.60
774;DHT22;370;48.810;9.150;2023-10-31T06:59:16;10.70;22.30
774;DHT22;370;48.810;9.150;2023-10-31T07:01:44;10.70;21.50
774;DHT22;370;48.810;9.150;2023-10-31T07:04:12;10.70;22.70
774;DHT22;370;48.810;9.150;2023-10-31T07:06:39;10.70;22.70
774;DHT22;370;48.810;9.150;2023-10-31T07:09:06;10.80;22.80
774;DHT22;370;48.810;9.150;2023-10-31T07:11:33;10.80;20.30
774;DHT22;370;48.810;9.150;2023-10-31T07:14:00;10.90;20.20
774;DHT22;370;48.810;9.150;2023-10-31T07:16:27;10.80;20.30
774;DHT22;370;48.810;9.150;2023-10-31T07:18:56;10.90;19.80
774;DHT22;370;48.810;9.150;2023-10-31T07:21:22;11.10;21.20
774;DHT22;370;48.810;9.150;2023-10-31T07:23:49;11.10;19.20
774;DHT22;370;48.810;9.150;2023-10-31T07:26:16;11.10;18.80
774;DHT22;370;48.810;9.150;2023-10-31T07:28:43;11.20;18.20
774;DHT22;370;48.810;9.150;2023-10-31T07:31:10;11.20;19.30
774;DHT22;370;48.810;9.150;2023-10-31T07:33:37;11.30;14.70
774;DHT22;370;48.810;9.150;2023-10-31T07:49:38;12.10;10.50
774;DHT22;370;48.810;9.150;2023-10-31T07:52:22;12.30;6.60
774;DHT22;370;48.810;9.150;2023-10-31T07:55:28;12.20;6.50
774;DHT22;370;48.810;9.150;2023-10-31T07:57:55;12.30;6.80
774;DHT22;370;48.810;9.150;2023-10-31T08:00:21;12.30;6.60
774;DHT22;370;48.810;9.150;2023-10-31T08:02:48;12.30;5.80
774;DHT22;370;48.810;9.150;2023-10-31T08:05:17;12.50;6.00
774;DHT22;370;48.810;9.150;2023-10-31T08:07:44;12.50;5.30
774;DHT22;370;48.810;9.150;2023-10-31T08:10:11;12.50;4.70
774;DHT22;370;48.810;9.150;2023-10-31T08:12:37;12.70;5.30
774;DHT22;370;48.810;9.150;2023-10-31T08:15:05;13.00;3.30
774;DHT22;370;48.810;9.150;2023-10-31T08:17:32;13.20;2.80
774;DHT22;370;48.810;9.150;2023-10-31T08:19:58;13.30;1.00
774;DHT22;370;48.810;9.150;2023-10-31T08:22:26;13.50;1.00
774;DHT22;370;48.810;9.150;2023-10-31T08:24:53;13.60;1.00
774;DHT22;370;48.810;9.150;2023-10-31T08:27:20;13.80;1.00
774;DHT22;370;48.810;9.150;2023-10-31T08:29:47;14.10;1.00
774;DHT22;370;48.810;9.150;2023-10-31T08:32:14;14.60;1.00
774;DHT22;370;48.810;9.150;2023-10-31T08:34:41;15.30;1.00
774;DHT22;370;48.810;9.150;2023-10-31T08:37:08;15.90;1.00
774;DHT22;370;48.810;9.150;2023-10-31T08:39:36;16.20;1.00
774;DHT22;370;48.810;9.150;2023-10-31T08:42:03;16.50;1.00
774;DHT22;370;48.810;9.150;2023-10-31T08:44:31;16.60;1.00
774;DHT22;370;48.810;9.150;2023-10-31T08:46:59;17.00;1.00
774;DHT22;370;48.810;9.150;2023-10-31T08:49:25;17.10;1.00
774;DHT22;370;48.810;9.150;2023-10-31T08:51:52;16.90;1.00
774;DHT22;370;48.810;9.150;2023-10-31T08:54:19;17.10;1.00
774;DHT22;370;48.810;9.150;2023-10-31T08:56:47;17.20;1.00
774;DHT22;370;48.810;9.150;2023-10-31T08:59:14;17.20;1.00
774;DHT22;370;48.810;9.150;2023-10-31T09:01:40;17.40;1.00
774;DHT22;370;48.810;9.150;2023-10-31T09:04:07;17.80;1.00
774;DHT22;370;48.810;9.150;2023-10-31T09:06:34;18.10;1.00
774;DHT22;370;48.810;9.150;2023-10-31T09:09:01;18.60;1.00
774;DHT22;370;48.810;9.150;2023-10-31T09:11:29;19.10;1.00
774;DHT22;370;48.810;9.150;2023-10-31T09:13:57;19.50;1.00
774;DHT22;370;48.810;9.150;2023-10-31T09:16:24;19.90;1.00
774;DHT22;370;48.810;9.150;2023-10-31T09:18:51;20.40;1.00
774;DHT22;370;48.810;9.150;2023-10-31T09:21:17;20.10;1.00
774;DHT22;370;48.810;9.150;2023-10-31T09:23:44;19.60;1.00
774;DHT22;370;48.810;9.150;2023-10-31T09:26:11;19.00;1.00
774;DHT22;370;48.810;9.150;2023-10-31T09:28:38;18.90;1.00
774;DHT22;370;48.810;9.150;2023-10-31T09:31:09;18.80;1.00
774;DHT22;370;48.810;9.150;2023-10-31T09:33:36;18.80;1.00
774;DHT22;370;48.810;9.150;2023-10-31T09:36:04;18.90;1.00
774;DHT22;370;48.810;9.150;2023-10-31T09:38:31;19.20;1.00
774;DHT22;370;48.810;9.150;2023-10-31T09:40:58;19.40;1.00
774;DHT22;370;48.810;9.150;2023-10-31T09:43:25;19.60;1.00
774;DHT22;370;48.810;9.150;2023-10-31T09:45:52;20.10;1.00
774;DHT22;370;48.810;9.150;2023-10-31T09:48:20;20.00;1.00
774;DHT22;370;48.810;9.150;2023-10-31T09:50:48;20.00;1.00
774;DHT22;370;48.810;9.150;2023-10-31T09:53:16;20.00;1.00
774;DHT22;370;48.810;9.150;2023-10-31T09:55:43;19.90;1.00
774;DHT22;370;48.810;9.150;2023-10-31T09:58:09;19.90;1.00
774;DHT22;370;48.810;9.150;2023-10-31T10:00:36;19.60;1.00
774;DHT22;370;48.810;9.150;2023-10-31T10:03:06;19.40;1.00
774;DHT22;370;48.810;9.150;2023-10-31T10:05:36;19.20;1.00
774;DHT22;370;48.810;9.150;2023-10-31T10:08:03;18.70;1.00
774;DHT22;370;48.810;9.150;2023-10-31T10:10:30;18.10;1.00
774;DHT22;370;48.810;9.150;2023-10-31T10:12:57;17.80;1.00
774;DHT22;370;48.810;9.150;2023-10-31T10:15:28;17.60;1.00
774;DHT22;370;48.810;9.150;2023-10-31T10:17:54;17.10;1.00
774;DHT22;370;48.810;9.150;2023-10-31T10:20:21;17.10;1.00
774;DHT22;370;48.810;9.150;2023-10-31T10:22:50;16.80;1.00
774;DHT22;370;48.810;9.150;2023-10-31T10:25:18;16.70;1.00
774;DHT22;370;48.810;9.150;2023-10-31T10:27:45;16.70;1.00
774;DHT22;370;48.810;9.150;2023-10-31T10:30:13;16.50;1.00
774;DHT22;370;48.810;9.150;2023-10-31T10:32:40;16.50;1.00
774;DHT22;370;48.810;9.150;2023-10-31T10:35:07;16.20;1.00
774;DHT22;370;48.810;9.150;2023-10-31T10:37:37;16.00;1.00
774;DHT22;370;48.810;9.150;2023-10-31T10:40:10;15.80;1.00
774;DHT22;370;48.810;9.150;2023-10-31T10:42:44;15.50;1.00
774;DHT22;370;48.810;9.150;2023-10-31T10:45:13;15.50;1.00
774;DHT22;370;48.810;9.150;2023-10-31T10:47:45;15.50;1.00
774;DHT22;370;48.810;9.150;2023-10-31T10:50:14;15.40;1.00
774;DHT22;370;48.810;9.150;2023-10-31T10:52:44;15.40;1.00
774;DHT22;370;48.810;9.150;2023-10-31T10:55:20;15.40;1.00
774;DHT22;370;48.810;9.150;2023-10-31T10:57:52;15.40;1.00
774;DHT22;370;48.810;9.150;2023-10-31T11:00:22;15.50;1.00
774;DHT22;370;48.810;9.150;2023-10-31T11:02:51;15.60;1.00
774;DHT22;370;48.810;9.150;2023-10-31T11:05:19;15.70;1.00
774;DHT22;370;48.810;9.150;2023-10-31T11:07:47;15.80;1.00
774;DHT22;370;48.810;9.150;2023-10-31T11:10:17;15.80;1.00
774;DHT22;370;48.810;9.150;2023-10-31T11:12:44;15.90;1.00
774;DHT22;370;48.810;9.150;2023-10-31T11:15:14;15.90;1.00
774;DHT22;370;48.810;9.150;2023-10-31T11:17:43;15.90;1.00
774;DHT22;370;48.810;9.150;2023-10-31T11:20:11;15.70;1.00
774;DHT22;370;48.810;9.150;2023-10-31T11:22:40;15.70;1.00
774;DHT22;370;48.810;9.150;2023-10-31T11:25:08;15.60;1.00
774;DHT22;370;48.810;9.150;2023-10-31T11:28:46;15.50;1.00
774;DHT22;370;48.810;9.150;2023-10-31T11:31:08;15.70;1.00
774;DHT22;370;48.810;9.150;2023-10-31T11:33:39;15.90;1.00
774;DHT22;370;48.810;9.150;2023-10-31T11:36:06;15.90;1.00
774;DHT22;370;48.810;9.150;2023-10-31T11:38:36;15.80;1.00
774;DHT22;370;48.810;9.150;2023-10-31T11:41:03;15.70;1.00
774;DHT22;370;48.810;9.150;2023-10-31T11:43:52;15.80;1.00
774;DHT22;370;48.810;9.150;2023-10-31T11:46:19;16.00;1.00
774;DHT22;370;48.810;9.150;2023-10-31T11:48:47;15.80;1.00
774;DHT22;370;48.810;9.150;2023-10-31T11:51:15;15.70;1.00
774;DHT22;370;48.810;9.150;2023-10-31T11:53:43;15.60;1.00
774;DHT22;370;48.810;9.150;2023-10-31T11:56:11;15.70;1.00
774;DHT22;370;48.810;9.150;2023-10-31T11:58:38;15.60;1.00
774;DHT22;370;48.810;9.150;2023-10-31T12:01:07;15.50;1.00
774;DHT22;370;48.810;9.150;2023-10-31T12:03:38;15.50;1.00
774;DHT22;370;48.810;9.150;2023-10-31T12:06:06;15.50;1.00
774;DHT22;370;48.810;9.150;2023-10-31T12:08:35;15.40;1.00
774;DHT22;370;48.810;9.150;2023-10-31T12:11:07;15.40;1.00
774;DHT22;370;48.810;9.150;2023-10-31T12:13:35;15.40;1.00
774;DHT22;370;48.810;9.150;2023-10-31T12:16:03;15.50;1.00
774;DHT22;370;48.810;9.150;2023-10-31T12:18:33;15.60;1.00
774;DHT22;370;48.810;9.150;2023-10-31T12:21:01;15.70;1.00
774;DHT22;370;48.810;9.150;2023-10-31T12:23:28;15.80;1.00
774;DHT22;370;48.810;9.150;2023-10-31T12:25:55;16.00;1.00
774;DHT22;370;48.810;9.150;2023-10-31T12:28:23;16.10;1.00
774;DHT22;370;48.810;9.150;2023-10-31T12:30:52;16.10;1.00
774;DHT22;370;48.810;9.150;2023-10-31T12:33:20;16.10;1.00
774;DHT22;370;48.810;9.150;2023-10-31T12:35:49;16.20;1.00
774;DHT22;370;48.810;9.150;2023-10-31T12:38:16;16.20;1.00
774;DHT22;370;48.810;9.150;2023-10-31T12:40:43;16.40;1.00
774;DHT22;370;48.810;9.150;2023-10-31T12:43:11;16.50;1.00
774;DHT22;370;48.810;9.150;2023-10-31T12:45:38;16.50;1.00
774;DHT22;370;48.810;9.150;2023-10-31T12:48:06;16.50;1.00
774;DHT22;370;48.810;9.150;2023-10-31T12:50:35;16.20;1.00
774;DHT22;370;48.810;9.150;2023-10-31T12:53:04;16.00;1.00
774;DHT22;370;48.810;9.150;2023-10-31T12:55:38;15.80;1.00
774;DHT22;370;48.810;9.150;2023-10-31T12:58:05;15.70;1.00
774;DHT22;370;48.810;9.150;2023-10-31T13:00:35;15.60;1.00
774;DHT22;370;48.810;9.150;2023-10-31T13:03:04;15.40;1.00
774;DHT22;370;48.810;9.150;2023-10-31T13:05:31;15.30;1.00
774;DHT22;370;48.810;9.150;2023-10-31T13:07:59;15.20;1.00
774;DHT22;370;48.810;9.150;2023-10-31T13:10:30;15.40;1.00
774;DHT22;370;48.810;9.150;2023-10-31T13:12:58;15.60;1.00
774;DHT22;370;48.810;9.150;2023-10-31T13:15:25;16.00;1.00
774;DHT22;370;48.810;9.150;2023-10-31T13:17:52;16.20;1.00
774;DHT22;370;48.810;9.150;2023-10-31T13:20:20;16.40;1.00
774;DHT22;370;48.810;9.150;2023-10-31T13:22:47;16.70;1.00
774;DHT22;370;48.810;9.150;2023-10-31T13:25:15;16.70;1.00
774;DHT22;370;48.810;9.150;2023-10-31T13:27:44;16.60;1.00
774;DHT22;370;48.810;9.150;2023-10-31T13:30:16;16.50;1.00
774;DHT22;370;48.810;9.150;2023-10-31T13:32:44;16.40;1.00
774;DHT22;370;48.810;9.150;2023-10-31T13:35:11;16.30;1.00
774;DHT22;370;48.810;9.150;2023-10-31T13:37:39;16.20;1.00
774;DHT22;370;48.810;9.150;2023-10-31T13:40:07;16.10;1.00
774;DHT22;370;48.810;9.150;2023-10-31T13:42:34;16.20;1.00
774;DHT22;370;48.810;9.150;2023-10-31T13:45:02;16.30;1.00
774;DHT22;370;48.810;9.150;2023-10-31T13:47:29;16.40;1.00
774;DHT22;370;48.810;9.150;2023-10-31T13:49:56;16.30;1.00
774;DHT22;370;48.810;9.150;2023-10-31T13:52:24;16.30;1.00
774;DHT22;370;48.810;9.150;2023-10-31T13:54:54;16.30;1.00
774;DHT22;370;48.810;9.150;2023-10-31T13:57:21;16.20;1.00
774;DHT22;370;48.810;9.150;2023-10-31T13:59:49;16.30;1.00
774;DHT22;370;48.810;9.150;2023-10-31T14:02:17;16.20;1.00
774;DHT22;370;48.810;9.150;2023-10-31T14:04:44;16.30;1.00
774;DHT22;370;48.810;9.150;2023-10-31T14:07:13;16.30;1.00
774;DHT22;370;48.810;9.150;2023-10-31T14:09:42;16.30;1.00
774;DHT22;370;48.810;9.150;2023-10-31T14:12:10;16.20;1.00
774;DHT22;370;48.810;9.150;2023-10-31T14:14:37;16.20;1.00
774;DHT22;370;48.810;9.150;2023-10-31T14:17:03;16.30;1.00
774;DHT22;370;48.810;9.150;2023-10-31T14:19:31;16.30;1.00
774;DHT22;370;48.810;9.150;2023-10-31T14:21:58;16.30;1.00
774;DHT22;370;48.810;9.150;2023-10-31T14:24:26;16.30;1.00
774;DHT22;370;48.810;9.150;2023-10-31T14:26:53;16.30;1.00
774;DHT22;370;48.810;9.150;2023-10-31T14:29:20;16.20;1.00
774;DHT22;370;48.810;9.150;2023-10-31T14:31:47;16.20;1.00
774;DHT22;370;48.810;9.150;2023-10-31T14:34:14;16.10;1.00
774;DHT22;370;48.810;9.150;2023-10-31T14:36:42;16.00;1.00
774;DHT22;370;48.810;9.150;2023-10-31T14:39:09;15.80;1.00
774;DHT22;370;48.810;9.150;2023-10-31T14:41:37;15.70;1.00
774;DHT22;370;48.810;9.150;2023-10-31T14:44:04;15.70;1.00
774;DHT22;370;48.810;9.150;2023-10-31T14:46:31;15.70;1.00
774;DHT22;370;48.810;9.150;2023-10-31T14:48:58;15.60;1.00
774;DHT22;370;48.810;9.150;2023-10-31T14:51:25;15.50;1.00
774;DHT22;370;48.810;9.150;2023-10-31T14:53:53;15.30;1.00
774;DHT22;370;48.810;9.150;2023-10-31T14:56:20;15.00;1.00
774;DHT22;370;48.810;9.150;2023-10-31T14:58:47;14.70;1.00
774;DHT22;370;48.810;9.150;2023-10-31T15:01:14;14.50;1.00
774;DHT22;370;48.810;9.150;2023-10-31T15:03:41;14.10;1.00
774;DHT22;370;48.810;9.150;2023-10-31T15:06:08;13.90;1.00
774;DHT22;370;48.810;9.150;2023-10-31T15:08:35;13.60;1.00
774;DHT22;370;48.810;9.150;2023-10-31T15:11:03;13.40;1.00
774;DHT22;370;48.810;9.150;2023-10-31T15:13:30;13.20;1.00
774;DHT22;370;48.810;9.150;2023-10-31T15:15:57;13.20;1.00
774;DHT22;370;48.810;9.150;2023-10-31T15:18:24;13.20;1.00
774;DHT22;370;48.810;9.150;2023-10-31T15:20:51;13.10;1.10
774;DHT22;370;48.810;9.150;2023-10-31T15:23:20;13.00;1.60
774;DHT22;370;48.810;9.150;2023-10-31T15:25:47;12.90;3.30
774;DHT22;370;48.810;9.150;2023-10-31T15:28:15;12.90;4.90
774;DHT22;370;48.810;9.150;2023-10-31T15:30:42;12.90;5.20
774;DHT22;370;48.810;9.150;2023-10-31T15:33:09;12.80;6.20
774;DHT22;370;48.810;9.150;2023-10-31T15:35:36;12.80;8.70
774;DHT22;370;48.810;9.150;2023-10-31T15:38:02;12.80;11.80
774;DHT22;370;48.810;9.150;2023-10-31T15:40:29;12.70;11.90
774;DHT22;370;48.810;9.150;2023-10-31T15:42:56;12.70;12.90
774;DHT22;370;48.810;9.150;2023-10-31T15:45:24;12.80;14.30
774;DHT22;370;48.810;9.150;2023-10-31T15:47:51;12.60;15.40
774;DHT22;370;48.810;9.150;2023-10-31T15:50:18;12.70;15.60
774;DHT22;370;48.810;9.150;2023-10-31T15:52:45;12.80;17.10
774;DHT22;370;48.810;9.150;2023-10-31T15:55:12;12.90;17.80
774;DHT22;370;48.810;9.150;2023-10-31T15:57:38;12.90;18.90
774;DHT22;370;48.810;9.150;2023-10-31T16:00:07;13.00;18.80
774;DHT22;370;48.810;9.150;2023-10-31T16:02:39;13.00;19.20
774;DHT22;370;48.810;9.150;2023-10-31T16:05:06;13.00;17.90
774;DHT22;370;48.810;9.150;2023-10-31T16:07:33;13.00;18.70
774;DHT22;370;48.810;9.150;2023-10-31T16:10:03;13.00;20.30
774;DHT22;370;48.810;9.150;2023-10-31T16:12:30;12.90;21.30
774;DHT22;370;48.810;9.150;2023-10-31T16:14:57;12.80;21.20
774;DHT22;370;48.810;9.150;2023-10-31T16:17:24;12.80;21.60
774;DHT22;370;48.810;9.150;2023-10-31T16:19:53;12.80;17.40
774;DHT22;370;48.810;9.150;2023-10-31T16:22:21;12.70;16.10
774;DHT22;370;48.810;9.150;2023-10-31T16:24:47;12.80;15.70
774;DHT22;370;48.810;9.150;2023-10-31T16:27:17;12.80;15.70
774;DHT22;370;48.810;9.150;2023-10-31T16:29:44;12.80;15.70
774;DHT22;370;48.810;9.150;2023-10-31T16:32:11;12.70;14.00
774;DHT22;370;48.810;9.150;2023-10-31T16:34:39;12.70;13.90
774;DHT22;370;48.810;9.150;2023-10-31T16:37:10;12.70;14.40
774;DHT22;370;48.810;9.150;2023-10-31T16:39:37;12.60;15.60
774;DHT22;370;48.810;9.150;2023-10-31T16:42:04;12.50;15.50
774;DHT22;370;48.810;9.150;2023-10-31T16:44:31;12.40;17.10
774;DHT22;370;48.810;9.150;2023-10-31T16:46:57;12.50;18.10
774;DHT22;370;48.810;9.150;2023-10-31T16:49:24;12.50;17.50
774;DHT22;370;48.810;9.150;2023-10-31T16:51:51;12.50;16.80
774;DHT22;370;48.810;9.150;2023-10-31T16:54:19;12.50;17.80
774;DHT22;370;48.810;9.150;2023-10-31T16:56:46;12.50;17.50
774;DHT22;370;48.810;9.150;2023-10-31T16:59:13;12.50;17.90
774;DHT22;370;48.810;9.150;2023-10-31T17:01:39;12.40;18.30
774;DHT22;370;48.810;9.150;2023-10-31T17:04:06;12.40;18.60
774;DHT22;370;48.810;9.150;2023-10-31T17:06:34;12.40;19.90
774;DHT22;370;48.810;9.150;2023-10-31T17:09:01;12.40;20.10
774;DHT22;370;48.810;9.150;2023-10-31T17:11:29;12.40;19.50
774;DHT22;370;48.810;9.150;2023-10-31T17:13:56;12.30;19.20
774;DHT22;370;48.810;9.150;2023-10-31T17:16:23;12.20;19.80
774;DHT22;370;48.810;9.150;2023-10-31T17:18:50;12.00;21.30
774;DHT22;370;48.810;9.150;2023-10-31T17:21:17;12.00;22.00
774;DHT22;370;48.810;9.150;2023-10-31T17:23:44;11.90;23.00
774;DHT22;370;48.810;9.150;2023-10-31T17:26:10;11.80;24.80
774;DHT22;370;48.810;9.150;2023-10-31T17:28:39;11.80;25.90
774;DHT22;370;48.810;9.150;2023-10-31T17:31:05;11.70;25.10
774;DHT22;370;48.810;9.150;2023-10-31T17:33:32;11.70;24.20
774;DHT22;370;48.810;9.150;2023-10-31T17:35:59;11.60;24.30
774;DHT22;370;48.810;9.150;2023-10-31T17:38:26;11.50;25.50
774;DHT22;370;48.810;9.150;2023-10-31T17:40:53;11.40;25.80
774;DHT22;370;48.810;9.150;2023-10-31T17:43:20;11.30;26.90
774;DHT22;370;48.810;9.150;2023-10-31T17:45:48;11.30;27.60
774;DHT22;370;48.810;9.150;2023-10-31T17:48:15;11.20;28.60
774;DHT22;370;48.810;9.150;2023-10-31T17:50:42;11.10;29.70
774;DHT22;370;48.810;9.150;2023-10-31T17:53:10;11.00;31.30
774;DHT22;370;48.810;9.150;2023-10-31T17:55:37;10.90;31.30
774;DHT22;370;48.810;9.150;2023-10-31T17:58:04;10.80;33.80
774;DHT22;370;48.810;9.150;2023-10-31T18:00:31;10.80;35.30
774;DHT22;370;48.810;9.150;2023-10-31T18:02:59;10.70;36.20
774;DHT22;370;48.810;9.150;2023-10-31T18:05:26;10.70;36.50
774;DHT22;370;48.810;9.150;2023-10-31T18:07:54;10.60;38.80
774;DHT22;370;48.810;9.150;2023-10-31T18:10:21;10.70;39.30
774;DHT22;370;48.810;9.150;2023-10-31T18:12:48;10.60;39.40
774;DHT22;370;48.810;9.150;2023-10-31T18:15:16;10.60;41.20
774;DHT22;370;48.810;9.150;2023-10-31T18:17:44;10.70;40.60
774;DHT22;370;48.810;9.150;2023-10-31T18:20:12;10.80;39.50
774;DHT22;370;48.810;9.150;2023-10-31T18:22:39;10.90;39.50
774;DHT22;370;48.810;9.150;2023-10-31T18:25:07;11.00;38.00
774;DHT22;370;48.810;9.150;2023-10-31T18:27:34;11.00;37.50
774;DHT22;370;48.810;9.150;2023-10-31T18:30:01;11.10;36.90
774;DHT22;370;48.810;9.150;2023-10-31T18:32:28;11.10;35.30
774;DHT22;370;48.810;9.150;2023-10-31T18:34:55;11.10;34.60
774;DHT22;370;48.810;9.150;2023-10-31T18:37:23;11.10;31.40
774;DHT22;370;48.810;9.150;2023-10-31T18:39:51;11.10;30.00
774;DHT22;370;48.810;9.150;2023-10-31T18:42:18;11.10;30.60
774;DHT22;370;48.810;9.150;2023-10-31T18:44:44;11.10;29.90
774;DHT22;370;48.810;9.150;2023-10-31T18:47:11;11.00;28.40
774;DHT22;370;48.810;9.150;2023-10-31T18:49:38;11.00;28.20
774;DHT22;370;48.810;9.150;2023-10-31T18:52:05;11.00;28.70
774;DHT22;370;48.810;9.150;2023-10-31T18:54:33;11.10;28.70
774;DHT22;370;48.810;9.150;2023-10-31T18:57:00;11.10;29.50
774;DHT22;370;48.810;9.150;2023-10-31T18:59:27;11.20;28.70
774;DHT22;370;48.810;9.150;2023-10-31T19:01:54;11.30;28.80
774;DHT22;370;48.810;9.150;2023-10-31T19:04:24;11.40;27.50
774;DHT22;370;48.810;9.150;2023-10-31T19:06:50;11.40;26.70
774;DHT22;370;48.810;9.150;2023-10-31T19:09:17;11.40;26.60
774;DHT22;370;48.810;9.150;2023-10-31T19:11:46;11.50;27.70
774;DHT22;370;48.810;9.150;2023-10-31T19:14:13;11.50;25.80
774;DHT22;370;48.810;9.150;2023-10-31T19:16:40;11.60;26.50
774;DHT22;370;48.810;9.150;2023-10-31T19:19:07;11.50;25.60
774;DHT22;370;48.810;9.150;2023-10-31T19:21:33;11.60;24.90
774;DHT22;370;48.810;9.150;2023-10-31T19:24:01;11.60;25.00
774;DHT22;370;48.810;9.150;2023-10-31T19:26:27;11.60;25.30
774;DHT22;370;48.810;9.150;2023-10-31T19:28:55;11.60;25.70